Terminal Aerodrome Forecast
Issued by NWS Knoxville/Tri Cities, TN

Home | Current Version | Previous Version | Text Only | Print | Product List | Glossary On
Versions: 1 2 3 4 5 6 7 8 9 10 11 12 13 14 15 16 17
000
FTUS44 KMRX 301127
TAFCHA
TAF
KCHA 301127Z 3012/0112 16004KT P6SM VCSH SCT050 BKN120
     FM301700 17010KT P6SM VCTS SCT050CB BKN150
     FM010100 VRB04KT P6SM VCTS SCT050CB BKN150
     FM010900 16003KT 5SM BR VCSH BKN030 OVC060=

USA.gov is the U.S. government's official web portal to all federal, state and local government web resources and services.